Terminal Aerodrome Forecast
Issued by NWS La Crosse, WI

Home | Current Version | Previous Version | Text Only | Print | Product List | Glossary On
Versions: 1 2 3 4 5 6 7 8 9 10 11 12 13 14 15 16 17 18 19 20 21 22 23 24 25 26 27 28 29 30 31 32 33 34 35 36 37 38
000
FTUS43 KARX 162320
TAFRST
TAF
KRST 162320Z 1700/1724 06009KT 2SM -FZRA BR OVC004
     FM170300 06008KT 1 1/2SM -FZRAPL BR OVC004
     FM170500 02007KT 1SM -SN BR OVC003
     FM170900 36008KT 3/4SM BR OVC003
     FM171800 31008KT 4SM BR OVC007
     FM172300 28007KT P6SM SCT015=

USA.gov is the U.S. government's official web portal to all federal, state and local government web resources and services.